Time;durP1;ratioP1;P1;durP2;ratioP2;P2;SDS_P1;SDS_P2;PMS_P1;PMS_P2;Temp;Humidity;BMP_temperature;BMP_pressure;BME280_temperature;BME280_humidity;BME280_pressure;Samples;Min_cycle;Max_cycle;Signal;HPM_P1;HPM_P2
2024/04/05 00:01:50;;;;;;;1.67;1.10;;;9.70;99.90;;;10.18;73.32;96808.00;2363527;56;26602;-79
2024/04/05 00:04:17;;;;;;;1.70;0.90;;;9.80;99.90;;;10.19;73.80;96810.00;2363359;56;26609;-79
2024/04/05 00:06:43;;;;;;;5.30;1.27;;;9.80;99.90;;;10.28;72.95;96806.00;2363548;56;26080;-77
2024/04/05 00:09:10;;;;;;;2.20;1.00;;;9.70;99.90;;;10.24;73.35;96797.00;2363614;56;26125;-80
2024/04/05 00:11:37;;;;;;;2.27;0.73;;;9.70;99.90;;;10.19;73.35;96791.00;2362908;56;26133;-77
2024/04/05 00:14:03;;;;;;;1.70;1.10;;;9.70;99.90;;;10.35;73.25;96790.00;2363702;56;26207;-78
2024/04/05 00:16:30;;;;;;;2.93;0.90;;;9.90;99.90;;;10.31;73.56;96801.00;2363516;56;26168;-79
2024/04/05 00:18:56;;;;;;;2.20;1.17;;;9.80;99.90;;;10.21;73.52;96805.00;2363736;56;26096;-78
2024/04/05 00:21:23;;;;;;;1.53;1.17;;;9.90;99.90;;;10.29;73.35;96797.00;2363782;56;26196;-79
2024/04/05 00:23:50;;;;;;;1.20;1.00;;;9.90;99.90;;;10.42;73.25;96801.00;2363544;56;26514;-77
2024/04/05 00:26:16;;;;;;;1.40;1.00;;;9.90;99.90;;;10.48;72.76;96806.00;2360430;56;26121;-78
2024/04/05 00:28:43;;;;;;;1.50;1.00;;;10.00;99.90;;;10.47;72.81;96823.00;2360099;56;26176;-76
2024/04/05 00:31:10;;;;;;;1.57;1.00;;;10.00;99.90;;;10.55;72.81;96833.00;2360101;56;26623;-80
2024/04/05 00:33:37;;;;;;;2.33;1.17;;;10.10;99.90;;;10.66;72.62;96822.00;2360206;56;26573;-77
2024/04/05 00:36:05;;;;;;;2.07;0.80;;;10.30;99.90;;;10.84;72.19;96810.00;2363493;56;26181;-79
2024/04/05 00:38:32;;;;;;;1.73;1.30;;;10.50;99.90;;;11.05;71.65;96805.00;2363647;56;26129;-77
2024/04/05 00:40:58;;;;;;;1.27;1.17;;;10.50;99.90;;;11.09;71.51;96818.00;2363842;56;26630;-79
2024/04/05 00:43:25;;;;;;;1.60;1.00;;;10.60;99.90;;;11.15;71.03;96811.00;2362624;56;26285;-79
2024/04/05 00:45:52;;;;;;;1.77;1.10;;;10.70;99.90;;;11.29;70.07;96806.00;2360215;56;26153;-78
2024/04/05 00:48:23;;;;;;;0.90;0.87;;;10.70;99.90;;;11.24;70.97;96796.00;2363190;56;26176;-80
2024/04/05 00:50:54;;;;;;;0.87;0.80;;;10.50;99.90;;;11.20;70.85;96806.00;2363003;56;26173;-76
2024/04/05 00:53:26;;;;;;;1.40;1.00;;;10.50;99.90;;;11.02;72.08;96817.00;2363557;56;26523;-80
2024/04/05 00:55:53;;;;;;;2.17;0.83;;;10.40;99.90;;;11.05;71.50;96830.00;2363727;56;26176;-79
2024/04/05 00:58:21;;;;;;;0.83;0.70;;;10.80;99.90;;;11.52;69.17;96835.00;2363898;56;26137;-80
2024/04/05 01:00:48;;;;;;;0.70;0.70;;;11.20;99.90;;;11.89;67.06;96841.00;2363937;56;26101;-80
2024/04/05 01:03:15;;;;;;;6.70;1.03;;;11.50;99.90;;;11.90;67.02;96850.00;2363357;56;26587;-79
2024/04/05 01:05:42;;;;;;;5.00;0.90;;;11.60;99.90;;;11.95;66.92;96848.00;2363863;56;26109;-79
2024/04/05 01:08:10;;;;;;;1.40;0.90;;;11.70;99.90;;;12.17;66.48;96848.00;2363578;56;26160;-80
2024/04/05 01:10:37;;;;;;;4.00;1.00;;;11.60;99.90;;;12.12;66.93;96854.00;2363397;56;26139;-78
2024/04/05 01:13:07;;;;;;;1.27;0.93;;;11.60;99.90;;;12.21;66.57;96871.00;2363005;56;26617;-77
2024/04/05 01:15:35;;;;;;;4.43;1.20;;;11.50;99.90;;;12.07;67.08;96890.00;2363584;56;26409;-77
2024/04/05 01:18:10;;;;;;;3.80;1.50;;;11.30;99.90;;;11.95;68.79;96903.00;2363768;56;26116;-79
2024/04/05 01:20:38;;;;;;;4.03;1.30;;;11.30;99.90;;;11.89;67.64;96908.00;2363783;56;26106;-78
2024/04/05 01:23:10;;;;;;;1.20;0.80;;;11.30;99.90;;;11.91;67.73;96911.00;2363483;56;26145;-79
2024/04/05 01:25:36;;;;;;;1.10;0.97;;;11.40;99.90;;;12.01;68.04;96905.00;2363458;56;26078;-79
2024/04/05 01:28:13;;;;;;;5.30;0.70;;;11.50;99.90;;;12.08;68.13;96914.00;2363537;56;26094;-79
2024/04/05 01:30:40;;;;;;;2.57;1.20;;;11.50;99.90;;;12.15;68.11;96912.00;2363520;56;27237;-78
2024/04/05 01:33:07;;;;;;;3.90;0.90;;;11.60;99.90;;;12.22;69.10;96918.00;2363729;56;26584;-80
2024/04/05 01:35:33;;;;;;;0.77;0.67;;;11.40;99.90;;;12.16;70.12;96913.00;2363672;56;26145;-80
2024/04/05 01:38:01;;;;;;;1.13;0.80;;;11.40;99.90;;;12.20;68.83;96912.00;2363821;56;26180;-79
2024/04/05 01:40:27;;;;;;;1.57;1.00;;;11.40;99.90;;;12.11;69.52;96902.00;2363997;56;26049;-79
2024/04/05 01:42:54;;;;;;;2.00;1.17;;;11.30;99.90;;;11.99;69.61;96878.00;2363575;56;26117;-80
2024/04/05 01:45:21;;;;;;;7.13;0.90;;;11.30;99.90;;;12.01;69.04;96879.00;2363563;56;26657;-77
2024/04/05 01:47:47;;;;;;;3.03;0.97;;;11.30;99.90;;;12.06;69.05;96887.00;2363377;56;26124;-78
2024/04/05 01:50:17;;;;;;;1.13;0.73;;;11.30;99.90;;;11.85;69.69;96905.00;2361216;56;26208;-79
2024/04/05 01:52:45;;;;;;;1.13;0.90;;;11.30;99.90;;;11.89;70.14;96913.00;2360273;56;26392;-77
2024/04/05 01:55:11;;;;;;;3.97;1.10;;;11.20;99.90;;;11.78;70.22;96920.00;2363574;56;26163;-78
2024/04/05 01:57:38;;;;;;;1.30;0.87;;;11.20;99.90;;;11.75;70.71;96912.00;2363542;56;26618;-79
2024/04/05 02:00:07;;;;;;;1.47;1.07;;;11.30;99.90;;;11.94;70.35;96916.00;2363869;56;26061;-78
2024/04/05 02:02:33;;;;;;;2.23;0.93;;;11.40;99.90;;;12.19;70.04;96918.00;2363605;56;26093;-77
2024/04/05 02:05:00;;;;;;;1.73;1.00;;;11.60;99.90;;;12.20;69.17;96924.00;2363245;56;26642;-77
2024/04/05 02:07:28;;;;;;;1.73;0.80;;;11.50;99.90;;;12.16;70.68;96913.00;2363702;56;26171;-79
2024/04/05 02:09:55;;;;;;;1.07;0.73;;;11.40;99.90;;;12.01;71.22;96916.00;2362663;56;26157;-77
2024/04/05 02:12:27;;;;;;;2.60;0.80;;;11.30;99.90;;;11.76;72.82;96931.00;2363262;56;26128;-76
2024/04/05 02:14:53;;;;;;;2.13;1.20;;;11.10;99.90;;;11.67;72.71;96926.00;2363416;56;26239;-78
2024/04/05 02:17:20;;;;;;;2.67;1.07;;;11.20;99.90;;;11.74;72.62;96926.00;2361065;56;26196;-80
2024/04/05 02:19:46;;;;;;;3.10;0.80;;;11.20;99.90;;;11.86;72.71;96919.00;2360135;56;26157;-79
2024/04/05 02:22:13;;;;;;;3.83;1.10;;;11.50;99.90;;;12.03;71.28;96925.00;2359664;56;26749;-76
2024/04/05 02:24:39;;;;;;;0.60;0.60;;;11.50;99.90;;;11.97;71.70;96918.00;2360127;56;26209;-79
2024/04/05 02:27:06;;;;;;;2.80;1.17;;;11.50;99.90;;;11.98;71.86;96915.00;2359383;56;26685;-76
2024/04/05 02:29:33;;;;;;;1.43;0.90;;;11.30;99.90;;;11.83;73.17;96917.00;2359943;56;26712;-79
2024/04/05 02:32:00;;;;;;;2.30;1.27;;;11.10;99.90;;;11.77;73.76;96918.00;2359955;56;26136;-80
2024/04/05 02:34:26;;;;;;;0.70;0.70;;;11.10;99.90;;;11.69;74.18;96921.00;2359675;56;26195;-81
2024/04/05 02:36:53;;;;;;;1.13;0.90;;;11.10;99.90;;;11.72;74.34;96928.00;2359821;56;26223;-79
2024/04/05 02:39:20;;;;;;;2.00;0.90;;;11.10;99.90;;;11.69;74.52;96935.00;2359839;56;26660;-76
2024/04/05 02:41:47;;;;;;;1.80;0.87;;;11.10;99.90;;;11.72;74.75;96926.00;2359410;56;26199;-80
2024/04/05 02:44:14;;;;;;;2.70;0.73;;;11.20;99.90;;;11.93;74.22;96920.00;2363169;56;26554;-80
2024/04/05 02:46:42;;;;;;;4.33;0.90;;;11.20;99.90;;;11.81;73.69;96917.00;2362914;56;26100;-78
2024/04/05 02:49:09;;;;;;;1.90;1.03;;;11.20;99.90;;;11.88;72.64;96919.00;2362805;56;26248;-77
2024/04/05 02:51:35;;;;;;;1.27;0.90;;;11.30;99.90;;;12.07;71.15;96923.00;2362400;56;26092;-77
2024/04/05 02:54:03;;;;;;;1.03;0.80;;;11.30;99.90;;;11.90;71.72;96925.00;2362459;56;26506;-78
2024/04/05 02:56:30;;;;;;;1.50;0.90;;;11.30;99.90;;;11.81;73.06;96932.00;2361445;56;26105;-77
2024/04/05 02:58:57;;;;;;;1.73;0.93;;;11.20;99.90;;;11.76;73.09;96922.00;2361944;56;26466;-77
2024/04/05 03:01:24;;;;;;;1.63;0.80;;;11.10;99.90;;;11.71;73.25;96925.00;2362683;56;26117;-79
2024/04/05 03:03:51;;;;;;;0.97;0.90;;;11.10;99.90;;;11.75;73.55;96933.00;2361759;56;26660;-79
2024/04/05 03:06:19;;;;;;;2.23;1.17;;;11.10;99.90;;;11.76;74.62;96930.00;2362855;56;26458;-80
2024/04/05 03:08:46;;;;;;;3.13;1.00;;;11.10;99.90;;;11.72;74.87;96920.00;2362718;56;26399;-75
2024/04/05 03:11:13;;;;;;;3.87;1.10;;;11.10;99.90;;;11.66;74.84;96932.00;2362845;56;26122;-75
2024/04/05 03:13:41;;;;;;;1.33;0.90;;;11.00;99.90;;;11.59;75.89;96932.00;2363101;56;26159;-76
2024/04/05 03:16:10;;;;;;;3.00;0.90;;;11.00;99.90;;;11.63;75.03;96937.00;2363272;56;26160;-76
2024/04/05 03:18:37;;;;;;;2.87;1.10;;;11.10;99.90;;;11.63;75.00;96938.00;2360967;56;26690;-76
2024/04/05 03:21:04;;;;;;;4.17;0.97;;;11.10;99.90;;;11.86;74.12;96938.00;2359901;56;26124;-76
2024/04/05 03:23:32;;;;;;;2.33;0.97;;;11.10;99.90;;;11.70;75.09;96936.00;2360153;56;26216;-77
2024/04/05 03:25:59;;;;;;;1.70;1.00;;;11.00;99.90;;;11.68;74.61;96936.00;2360007;56;26200;-79
2024/04/05 03:28:25;;;;;;;1.50;1.00;;;10.90;99.90;;;11.57;75.06;96950.00;2359524;56;26638;-79
2024/04/05 03:30:52;;;;;;;1.17;0.87;;;11.00;99.90;;;11.57;74.82;96947.00;2359981;56;26227;-78
2024/04/05 03:33:18;;;;;;;3.40;1.87;;;11.00;99.90;;;11.56;75.69;96952.00;2359396;56;27201;-74
2024/04/05 03:35:45;;;;;;;5.23;1.50;;;11.10;99.90;;;11.68;74.37;96954.00;2359450;56;27187;-76
2024/04/05 03:38:11;;;;;;;3.30;1.23;;;11.20;99.90;;;11.88;73.42;96959.00;2359426;56;26732;-76
2024/04/05 03:40:41;;;;;;;4.47;1.40;;;11.40;99.90;;;11.95;73.03;96966.00;2358723;56;26181;-78
2024/04/05 03:43:08;;;;;;;3.43;1.03;;;11.50;99.90;;;11.99;72.68;96967.00;2362219;56;26161;-76
2024/04/05 03:45:35;;;;;;;1.97;0.90;;;11.50;99.90;;;12.09;72.99;96966.00;2361952;56;26109;-78
2024/04/05 03:48:01;;;;;;;1.87;0.90;;;11.50;99.90;;;12.08;73.16;96959.00;2361947;56;26617;-76
2024/04/05 03:50:28;;;;;;;1.53;0.90;;;11.40;99.90;;;11.97;73.14;96958.00;2362596;56;26096;-79
2024/04/05 03:52:55;;;;;;;1.27;0.90;;;11.30;99.90;;;11.89;73.35;96959.00;2361380;56;26583;-76
2024/04/05 03:55:21;;;;;;;1.43;0.80;;;11.30;99.90;;;12.00;72.65;96954.00;2361251;56;26586;-76
2024/04/05 03:57:52;;;;;;;9.70;1.00;;;11.30;99.90;;;11.94;72.98;96950.00;2361011;56;26933;-76
2024/04/05 04:00:22;;;;;;;4.93;0.90;;;11.20;99.90;;;11.83;73.71;96951.00;2361399;56;26490;-78
2024/04/05 04:02:52;;;;;;;2.37;1.23;;;11.10;99.90;;;11.65;75.04;96968.00;2362287;56;26144;-78
2024/04/05 04:05:19;;;;;;;0.70;0.70;;;10.90;99.90;;;11.46;75.68;96967.00;2362189;56;26128;-78
2024/04/05 04:07:46;;;;;;;2.37;1.00;;;10.90;99.90;;;11.43;76.25;96974.00;2362292;56;26058;-75
2024/04/05 04:10:14;;;;;;;1.53;1.23;;;10.90;99.90;;;11.55;75.37;96985.00;2362308;56;26496;-75
2024/04/05 04:12:40;;;;;;;6.00;1.73;;;11.00;99.90;;;11.59;75.53;96993.00;2361906;56;26128;-77
2024/04/05 04:15:11;;;;;;;1.40;1.00;;;11.10;99.90;;;11.78;74.95;97001.00;2361853;56;26140;-75
2024/04/05 04:17:38;;;;;;;1.30;1.00;;;11.20;99.90;;;11.88;74.20;97003.00;2363325;56;26539;-77
2024/04/05 04:20:06;;;;;;;5.80;1.27;;;11.30;99.90;;;11.85;73.86;97006.00;2362455;56;26070;-78
2024/04/05 04:22:33;;;;;;;4.20;1.00;;;11.30;99.90;;;12.00;73.69;97003.00;2362429;56;26176;-75
2024/04/05 04:25:03;;;;;;;3.33;1.27;;;11.30;99.90;;;11.83;74.76;97005.00;2361372;56;26188;-78
2024/04/05 04:27:30;;;;;;;2.03;1.27;;;11.20;99.90;;;11.80;74.73;97010.00;2361997;56;26113;-76
2024/04/05 04:29:58;;;;;;;1.67;1.03;;;11.20;99.90;;;11.77;74.76;97001.00;2361819;56;26158;-76
2024/04/05 04:32:25;;;;;;;2.50;1.00;;;11.10;99.90;;;11.63;75.64;97011.00;2361513;56;26125;-78
2024/04/05 04:34:51;;;;;;;1.30;1.00;;;11.10;99.90;;;11.57;75.73;97014.00;2361966;56;26621;-75
2024/04/05 04:37:20;;;;;;;1.73;1.07;;;11.00;99.90;;;11.61;75.76;97013.00;2361961;56;26582;-77
2024/04/05 04:39:47;;;;;;;1.07;0.70;;;11.00;99.90;;;11.50;76.01;97023.00;2360953;56;26097;-78
2024/04/05 04:42:13;;;;;;;1.17;0.90;;;11.00;99.90;;;11.61;75.75;97015.00;2360652;56;26077;-76
2024/04/05 04:44:40;;;;;;;1.67;0.97;;;11.00;99.90;;;11.63;75.29;97019.00;2361093;56;26519;-78
2024/04/05 04:47:07;;;;;;;1.60;0.97;;;11.10;99.90;;;11.75;74.63;97009.00;2360856;56;26128;-76
2024/04/05 04:49:33;;;;;;;4.50;1.20;;;11.20;99.90;;;11.85;73.82;97005.00;2359887;56;26513;-79
2024/04/05 04:52:00;;;;;;;6.23;1.17;;;11.30;99.90;;;11.87;73.67;97007.00;2359927;56;26150;-78
2024/04/05 04:54:28;;;;;;;2.57;1.10;;;11.30;99.90;;;11.81;75.05;97001.00;2359449;56;26136;-76
2024/04/05 04:56:55;;;;;;;2.33;1.50;;;11.20;99.90;;;11.78;75.21;97003.00;2360391;56;26228;-79
2024/04/05 04:59:28;;;;;;;1.20;1.10;;;11.20;99.90;;;11.75;75.62;97001.00;2359943;56;26212;-78
2024/04/05 05:01:57;;;;;;;2.03;1.20;;;11.20;99.90;;;11.88;75.27;97008.00;2359841;56;26630;-76
2024/04/05 05:04:24;;;;;;;5.33;1.40;;;11.20;99.90;;;11.79;75.81;97012.00;2357699;56;26177;-78
2024/04/05 05:06:51;;;;;;;1.57;1.07;;;11.10;99.90;;;11.75;76.48;97019.00;2358655;56;26580;-78
2024/04/05 05:09:18;;;;;;;3.90;1.40;;;11.10;99.90;;;11.67;76.59;97020.00;2358788;56;26101;-77
2024/04/05 05:11:46;;;;;;;3.17;1.13;;;11.10;99.90;;;11.78;76.22;97014.00;2355813;56;27240;-78
2024/04/05 05:14:12;;;;;;;3.53;1.60;;;11.20;99.90;;;11.86;75.42;97018.00;2355724;56;26204;-75
2024/04/05 05:16:39;;;;;;;3.10;1.63;;;11.40;99.90;;;12.11;74.34;97007.00;2357099;56;26069;-77
2024/04/05 05:19:07;;;;;;;4.17;1.77;;;11.40;99.90;;;12.02;74.19;96999.00;2356234;56;26241;-77
2024/04/05 05:21:35;;;;;;;2.53;1.47;;;11.40;99.90;;;12.07;73.85;97001.00;2355495;56;26117;-77
2024/04/05 05:24:02;;;;;;;2.83;1.33;;;11.40;99.90;;;12.07;74.38;96998.00;2360356;56;27228;-75
2024/04/05 05:26:31;;;;;;;3.20;1.30;;;11.40;99.90;;;12.03;74.93;97010.00;2360735;56;26049;-79
2024/04/05 05:28:57;;;;;;;7.17;2.10;;;11.50;99.90;;;12.21;74.64;97013.00;2358436;56;26082;-78
2024/04/05 05:31:24;;;;;;;8.13;2.87;;;11.70;99.90;;;12.58;72.63;97018.00;2357440;56;26173;-78
2024/04/05 05:33:51;;;;;;;9.00;3.47;;;11.90;99.90;;;12.59;72.03;97017.00;2359081;56;26141;-75
2024/04/05 05:36:17;;;;;;;5.17;1.40;;;11.90;99.90;;;12.62;72.20;97016.00;2360444;56;26129;-78
2024/04/05 05:38:44;;;;;;;10.63;2.30;;;12.00;99.90;;;12.70;72.91;97013.00;2358692;56;26693;-79
2024/04/05 05:41:11;;;;;;;4.90;2.17;;;12.10;99.90;;;12.90;72.24;97026.00;2360455;56;26069;-78
2024/04/05 05:43:37;;;;;;;2.93;1.40;;;12.50;99.90;;;13.39;69.37;97027.00;2360374;56;26558;-77
2024/04/05 05:46:08;;;;;;;3.20;1.57;;;12.70;99.90;;;13.51;68.36;97034.00;2359867;56;26101;-76
2024/04/05 05:48:35;;;;;;;4.03;1.27;;;13.00;99.90;;;13.82;66.99;97034.00;2359979;56;26073;-76
2024/04/05 05:51:01;;;;;;;2.17;1.20;;;13.40;99.90;;;14.21;65.53;97029.00;2359682;56;26121;-79
2024/04/05 05:53:28;;;;;;;11.07;1.43;;;13.60;99.90;;;14.41;64.71;97025.00;2359779;56;26144;-78
2024/04/05 05:55:54;;;;;;;3.50;1.50;;;14.00;99.90;;;15.01;62.19;97035.00;2359490;56;26152;-78
2024/04/05 05:58:21;;;;;;;1.10;1.00;;;14.40;99.90;;;15.12;62.07;97042.00;2360824;56;26832;-78
2024/04/05 06:00:48;;;;;;;2.30;1.50;;;14.50;99.90;;;15.50;60.15;97027.00;2360459;56;26113;-79
2024/04/05 06:03:14;;;;;;;8.05;1.87;;;14.70;99.90;;;15.58;61.85;97024.00;2359444;56;26156;-76
2024/04/05 06:05:48;;;;;;;3.03;1.70;;;14.80;99.90;;;15.84;62.75;97023.00;2359577;56;26109;-78
2024/04/05 06:08:15;;;;;;;1.97;1.30;;;15.00;99.90;;;16.06;62.32;97019.00;2358819;56;26136;-78
2024/04/05 06:10:41;;;;;;;7.40;1.55;;;15.20;99.90;;;16.38;59.99;97027.00;2361386;56;26074;-79
2024/04/05 06:13:08;;;;;;;5.65;1.77;;;15.40;99.90;;;16.55;58.53;97029.00;2360675;56;26541;-79
2024/04/05 06:15:34;;;;;;;10.57;1.92;;;15.50;99.90;;;16.55;57.71;97035.00;2360380;56;26101;-77
2024/04/05 06:18:02;;;;;;;9.50;1.83;;;15.50;99.90;;;16.73;57.75;97038.00;2360223;56;26884;-79
2024/04/05 06:20:28;;;;;;;7.37;1.23;;;15.60;99.90;;;16.74;57.46;97037.00;2358764;56;26475;-79
2024/04/05 06:22:56;;;;;;;4.00;1.58;;;15.60;99.90;;;16.71;57.36;97032.00;2360705;56;26164;-77
2024/04/05 06:25:23;;;;;;;13.43;1.70;;;15.50;99.90;;;16.60;57.18;97036.00;2360271;56;26105;-78
2024/04/05 06:27:50;;;;;;;4.00;1.73;;;15.40;99.90;;;16.46;57.60;97029.00;2360004;56;26416;-78
2024/04/05 06:30:17;;;;;;;4.60;1.50;;;15.50;99.90;;;16.51;58.42;97032.00;2361245;56;26205;-77
2024/04/05 06:32:43;;;;;;;2.75;1.35;;;15.40;99.90;;;16.57;58.29;97030.00;2360733;56;26180;-79
2024/04/05 06:35:10;;;;;;;5.40;1.48;;;15.40;99.90;;;16.44;58.86;97034.00;2361451;56;26065;-79
2024/04/05 06:37:37;;;;;;;10.07;2.87;;;15.50;99.90;;;16.56;56.75;97026.00;2360598;56;26922;-77
2024/04/05 06:40:05;;;;;;;13.43;2.20;;;15.40;99.90;;;16.46;56.91;97031.00;2359900;56;26129;-80
2024/04/05 06:42:31;;;;;;;5.32;2.30;;;15.40;99.90;;;16.50;57.19;97036.00;2360006;56;26705;-79
2024/04/05 06:44:58;;;;;;;12.37;2.33;;;15.50;99.90;;;16.60;57.09;97036.00;2360742;56;26058;-78
2024/04/05 06:47:24;;;;;;;4.82;2.00;;;15.60;99.90;;;16.74;57.32;97045.00;2360641;56;26653;-76
2024/04/05 06:49:53;;;;;;;13.68;2.97;;;15.70;99.90;;;16.89;57.27;97044.00;2359537;56;26894;-80
2024/04/05 06:52:20;;;;;;;10.50;2.67;;;15.90;99.90;;;17.15;57.57;97045.00;2359175;56;26168;-78
2024/04/05 06:54:46;;;;;;;12.77;2.37;;;16.20;99.90;;;17.46;55.70;97043.00;2359762;56;26638;-77
2024/04/05 06:57:13;;;;;;;5.82;1.98;;;16.60;99.70;;;17.96;53.66;97046.00;2359443;56;26112;-77
2024/04/05 06:59:39;;;;;;;8.23;1.77;;;16.90;99.00;;;18.30;52.35;97047.00;2360395;56;26109;-78
2024/04/05 07:02:07;;;;;;;6.20;1.90;;;17.00;99.00;;;18.43;52.49;97043.00;2358196;56;27187;-77
2024/04/05 07:04:37;;;;;;;2.55;1.67;;;17.10;98.40;;;18.44;51.65;97050.00;2359671;56;26520;-77
2024/04/05 07:07:04;;;;;;;6.32;2.33;;;17.10;98.50;;;18.40;51.94;97051.00;2359783;56;26184;-78
2024/04/05 07:09:31;;;;;;;7.30;2.00;;;16.90;98.80;;;18.27;52.45;97050.00;2359812;56;26094;-78
2024/04/05 07:12:02;;;;;;;3.85;2.05;;;16.80;99.00;;;18.20;52.79;97049.00;2360134;56;26113;-78
2024/04/05 07:14:29;;;;;;;11.93;1.40;;;17.10;98.20;;;18.50;51.28;97040.00;2360852;56;26046;-79
2024/04/05 07:16:56;;;;;;;4.40;1.65;;;17.10;97.60;;;18.27;50.97;97042.00;2360893;56;26657;-76
2024/04/05 07:19:24;;;;;;;5.25;1.62;;;17.00;97.60;;;18.25;50.91;97049.00;2360694;56;26148;-79
2024/04/05 07:21:52;;;;;;;3.78;1.45;;;17.00;97.50;;;18.19;51.15;97046.00;2359759;56;26132;-78
2024/04/05 07:24:21;;;;;;;4.32;1.62;;;17.00;97.30;;;18.17;50.88;97061.00;2360222;56;26061;-79
2024/04/05 07:26:47;;;;;;;6.47;1.67;;;17.00;97.60;;;18.14;51.40;97053.00;2360535;56;26538;-78
2024/04/05 07:29:15;;;;;;;7.72;1.95;;;17.00;97.70;;;18.05;51.91;97060.00;2361161;56;26549;-77
2024/04/05 07:31:42;;;;;;;2.78;1.40;;;17.00;98.10;;;18.03;52.66;97063.00;2360747;56;26193;-79
2024/04/05 07:34:09;;;;;;;8.45;1.45;;;17.10;98.20;;;18.24;52.52;97070.00;2358476;56;26065;-79
2024/04/05 07:36:38;;;;;;;1.83;1.50;;;17.30;97.30;;;18.44;50.57;97068.00;2358803;56;26150;-79
2024/04/05 07:39:05;;;;;;;2.53;1.35;;;17.40;96.80;;;18.47;50.05;97065.00;2356627;56;26242;-77
2024/04/05 07:41:31;;;;;;;1.42;1.00;;;17.50;96.90;;;18.56;50.42;97077.00;2356128;56;26255;-77
2024/04/05 07:43:58;;;;;;;1.60;1.05;;;17.60;95.80;;;18.75;48.43;97069.00;2357665;56;26236;-76
2024/04/05 07:46:24;;;;;;;3.28;0.90;;;17.60;96.00;;;18.82;48.73;97070.00;2357532;56;26151;-77
2024/04/05 07:48:51;;;;;;;4.55;1.00;;;17.80;95.00;;;19.00;46.96;97066.00;2357544;56;26451;-76
2024/04/05 07:51:20;;;;;;;5.95;1.10;;;18.00;94.30;;;19.16;45.98;97072.00;2358088;56;26183;-79
2024/04/05 07:53:47;;;;;;;1.10;1.00;;;18.10;94.10;;;19.37;45.69;97067.00;2357275;56;26102;-80
2024/04/05 07:56:13;;;;;;;2.53;1.17;;;18.50;94.30;;;19.87;45.61;97069.00;2357847;56;26854;-78
2024/04/05 07:58:40;;;;;;;2.03;1.10;;;18.60;93.80;;;20.09;44.78;97066.00;2357617;56;26599;-80
2024/04/05 08:01:07;;;;;;;1.33;0.85;;;18.70;94.00;;;20.12;45.09;97070.00;2357908;56;26192;-78
2024/04/05 08:03:34;;;;;;;1.40;1.00;;;19.00;94.00;;;20.50;45.14;97076.00;2357703;56;26078;-76
2024/04/05 08:06:01;;;;;;;1.17;1.05;;;19.30;93.10;;;20.91;43.31;97073.00;2357540;56;26653;-80
2024/04/05 08:08:28;;;;;;;1.77;1.17;;;19.50;93.00;;;21.06;43.38;97071.00;2358353;56;26188;-76
2024/04/05 08:11:01;;;;;;;4.30;1.00;;;19.60;93.20;;;21.27;43.61;97069.00;2358501;56;26713;-77
2024/04/05 08:13:28;;;;;;;2.15;1.20;;;19.70;92.90;;;21.31;43.33;97075.00;2358887;56;26665;-77
2024/04/05 08:15:55;;;;;;;1.27;0.90;;;19.80;92.50;;;21.40;42.75;97071.00;2359454;56;26896;-79
2024/04/05 08:18:22;;;;;;;27.52;2.87;;;19.80;91.40;;;21.36;41.21;97071.00;2361017;56;26141;-79
2024/04/05 08:20:49;;;;;;;1.83;1.08;;;19.70;91.90;;;21.41;41.82;97071.00;2359938;56;26057;-78
2024/04/05 08:23:15;;;;;;;1.00;0.90;;;19.80;91.40;;;21.44;41.43;97060.00;2360364;56;26136;-79
2024/04/05 08:25:42;;;;;;;2.17;0.95;;;19.90;92.30;;;21.37;43.17;97062.00;2360239;56;26053;-76
2024/04/05 08:28:08;;;;;;;3.12;1.25;;;20.00;92.20;;;21.53;42.69;97060.00;2358767;56;26159;-79
2024/04/05 08:30:35;;;;;;;1.40;1.00;;;20.20;91.10;;;21.74;40.92;97062.00;2359361;56;26199;-77
2024/04/05 08:33:03;;;;;;;0.85;0.80;;;20.20;91.00;;;21.76;40.91;97062.00;2359495;56;26149;-79
2024/04/05 08:35:30;;;;;;;0.60;0.60;;;20.40;90.50;;;22.10;39.89;97052.00;2360742;56;26105;-76
2024/04/05 08:38:03;;;;;;;1.60;0.90;;;20.50;91.50;;;22.22;41.42;97060.00;2360817;56;26124;-79
2024/04/05 08:40:30;;;;;;;4.87;1.10;;;20.70;91.60;;;22.36;41.80;97061.00;2360688;56;26548;-78
2024/04/05 08:43:01;;;;;;;3.55;1.12;;;20.80;91.70;;;22.50;41.71;97064.00;2360404;56;26133;-77
2024/04/05 08:45:32;;;;;;;1.60;0.88;;;20.90;90.40;;;22.39;40.23;97060.00;2360064;56;26540;-78
2024/04/05 08:48:04;;;;;;;0.90;0.90;;;20.70;90.00;;;22.28;39.61;97057.00;2360002;56;26133;-79
2024/04/05 08:50:34;;;;;;;0.60;0.60;;;20.80;88.00;;;22.49;38.17;97055.00;2360069;56;26152;-76
2024/04/05 08:53:01;;;;;;;1.05;0.95;;;20.50;89.30;;;22.20;39.16;97058.00;2360404;56;26073;-78
2024/04/05 08:55:29;;;;;;;2.12;1.10;;;20.60;91.00;;;22.28;41.48;97065.00;2196550;56;10000355;-76
2024/04/05 08:57:56;;;;;;;1.58;1.08;;;20.80;89.80;;;22.40;39.68;97071.00;2358963;56;26172;-77
2024/04/05 09:00:23;;;;;;;3.83;0.90;;;20.90;90.60;;;22.47;40.91;97068.00;2358715;56;26569;-79
2024/04/05 09:02:56;;;;;;;1.12;0.80;;;20.90;90.80;;;22.51;41.10;97075.00;2359798;56;26642;-78
2024/04/05 09:05:23;;;;;;;1.45;0.82;;;20.90;89.40;;;22.36;39.78;97073.00;2357444;56;26482;-78
2024/04/05 09:08:01;;;;;;;6.35;1.08;;;20.90;89.80;;;22.53;39.93;97075.00;2355298;56;26105;-78
2024/04/05 09:10:28;;;;;;;1.73;1.02;;;21.00;90.20;;;22.60;40.25;97072.00;2357664;56;26168;-77
2024/04/05 09:12:58;;;;;;;1.20;0.90;;;21.30;88.80;;;23.02;38.79;97074.00;2358138;56;26673;-76
2024/04/05 09:15:26;;;;;;;0.68;0.68;;;21.20;88.80;;;22.98;38.99;97064.00;2357846;56;26732;-76
2024/04/05 09:17:53;;;;;;;7.90;0.88;;;21.20;89.20;;;22.87;39.49;97071.00;2357271;56;26803;-77
2024/04/05 09:20:25;;;;;;;2.97;1.20;;;21.20;88.70;;;22.91;39.20;97069.00;2357063;56;26523;-75
2024/04/05 09:23:03;;;;;;;1.42;0.90;;;21.20;89.40;;;22.83;39.64;97066.00;2356840;56;26153;-79
2024/04/05 09:25:31;;;;;;;2.05;0.90;;;21.30;90.00;;;22.92;40.15;97055.00;2356711;56;26105;-77
2024/04/05 09:28:10;;;;;;;1.25;0.80;;;21.40;89.10;;;22.96;39.61;97065.00;2356976;56;26548;-78
2024/04/05 09:30:37;;;;;;;1.75;0.80;;;21.20;89.50;;;22.69;40.26;97065.00;2356889;56;27058;-76
2024/04/05 09:33:04;;;;;;;0.73;0.70;;;21.20;89.40;;;22.69;40.06;97054.00;2357439;56;26172;-79
2024/04/05 09:35:31;;;;;;;0.98;0.85;;;21.20;90.20;;;22.75;40.77;97042.00;2358683;56;26121;-78
2024/04/05 09:37:58;;;;;;;1.25;1.05;;;21.40;88.10;;;22.88;39.00;97042.00;2357921;56;26177;-78
2024/04/05 09:40:25;;;;;;;1.37;0.95;;;21.30;88.60;;;22.72;39.77;97046.00;2359500;56;26128;-75
2024/04/05 09:42:57;;;;;;;2.53;1.20;;;21.50;88.30;;;23.15;38.98;97039.00;2358660;56;26065;-79
2024/04/05 09:45:23;;;;;;;3.35;0.80;;;21.60;90.40;;;23.19;40.43;97035.00;2358218;56;26404;-78
2024/04/05 09:47:52;;;;;;;2.40;0.93;;;21.60;90.00;;;23.12;40.50;97033.00;2358577;56;26117;-79
2024/04/05 09:50:22;;;;;;;1.65;0.90;;;21.60;88.70;;;23.15;39.67;97029.00;2359438;56;26610;-79
2024/04/05 09:52:56;;;;;;;0.82;0.80;;;21.60;88.90;;;22.99;39.87;97023.00;2360194;56;26086;-79
2024/04/05 09:55:23;;;;;;;2.42;1.17;;;21.50;89.50;;;22.94;40.52;97022.00;2359340;56;26558;-77
2024/04/05 09:57:50;;;;;;;0.85;0.75;;;21.60;89.50;;;22.99;40.42;97031.00;2358832;56;26117;-77
2024/04/05 10:00:23;;;;;;;0.95;0.95;;;21.60;89.30;;;23.06;40.15;97026.00;2358757;56;26104;-79
2024/04/05 10:02:58;;;;;;;1.62;0.90;;;21.70;88.20;;;23.10;39.47;97024.00;2357984;56;26153;-79
2024/04/05 10:05:30;;;;;;;2.22;1.02;;;21.60;88.10;;;22.91;39.81;97021.00;2359872;56;26694;-79
2024/04/05 10:08:12;;;;;;;2.15;1.10;;;21.40;87.30;;;22.79;39.21;97018.00;2360063;56;26180;-77
2024/04/05 10:10:40;;;;;;;1.23;0.82;;;21.30;89.80;;;22.77;40.90;97012.00;2360180;56;26517;-76
2024/04/05 10:13:16;;;;;;;0.88;0.85;;;21.30;89.00;;;22.79;40.33;97016.00;2360566;56;26161;-79
2024/04/05 10:16:00;;;;;;;6.22;0.88;;;21.20;88.90;;;22.60;40.39;97021.00;2359990;56;26154;-79
2024/04/05 10:18:36;;;;;;;11.00;1.52;;;21.30;87.80;;;22.75;39.61;97017.00;2361177;56;26163;-79
2024/04/05 10:21:08;;;;;;;1.33;0.98;;;21.40;88.70;;;22.70;40.23;97020.00;2361171;56;26168;-79
2024/04/05 10:23:42;;;;;;;1.17;1.02;;;21.50;88.80;;;22.89;40.16;97029.00;2359899;56;26283;-77